createdAt,value
2023-01-21T00:00:47.579Z,-6.58
2023-01-21T00:01:47.581Z,-6.56
2023-01-21T00:02:47.556Z,-6.50
2023-01-21T00:03:47.602Z,-6.50
2023-01-21T00:04:47.557Z,-6.50
2023-01-21T00:05:47.513Z,-6.50
2023-01-21T00:06:47.492Z,-6.49
2023-01-21T00:07:47.488Z,-6.49
2023-01-21T00:08:47.478Z,-6.56
2023-01-21T00:09:47.457Z,-6.56
2023-01-21T00:10:47.455Z,-6.61
2023-01-21T00:11:47.438Z,-6.56
2023-01-21T00:12:47.425Z,-6.61
2023-01-21T00:13:47.407Z,-6.54
2023-01-21T00:14:47.399Z,-6.56
2023-01-21T00:15:47.428Z,-6.54
2023-01-21T00:16:47.375Z,-6.54
2023-01-21T00:17:47.372Z,-6.56
2023-01-21T00:18:47.343Z,-6.49
2023-01-21T00:19:47.333Z,-6.49
2023-01-21T00:20:47.356Z,-6.44
2023-01-21T00:21:47.309Z,-6.44
2023-01-21T00:22:47.299Z,-6.47
2023-01-21T00:23:47.281Z,-6.36
2023-01-21T00:24:47.263Z,-6.34
2023-01-21T00:25:47.257Z,-6.32
2023-01-21T00:26:47.248Z,-6.29
2023-01-21T00:27:47.236Z,-6.29
2023-01-21T00:28:47.218Z,-6.34
2023-01-21T00:29:47.208Z,-6.17
2023-01-21T00:30:47.287Z,-6.15
2023-01-21T00:31:47.343Z,-6.20
2023-01-21T00:32:47.174Z,-6.13
2023-01-21T00:33:47.156Z,-6.23
2023-01-21T00:34:47.139Z,-6.24
2023-01-21T00:35:47.126Z,-6.26
2023-01-21T00:36:47.136Z,-6.26
2023-01-21T00:37:47.104Z,-6.32
2023-01-21T00:38:47.092Z,-6.38
2023-01-21T00:39:47.070Z,-6.35
2023-01-21T00:40:47.057Z,-6.31
2023-01-21T00:41:47.048Z,-6.17
2023-01-21T00:42:47.036Z,-6.15
2023-01-21T00:43:47.027Z,-6.13
2023-01-21T00:44:47.020Z,-6.05
2023-01-21T00:45:47.001Z,-6.13
2023-01-21T00:46:46.978Z,-6.14
2023-01-21T00:47:46.972Z,-6.14
2023-01-21T00:48:46.959Z,-6.14
2023-01-21T00:49:46.949Z,-6.14
2023-01-21T00:50:46.951Z,-6.10
2023-01-21T00:51:46.916Z,-6.11
2023-01-21T00:52:46.933Z,-6.24
2023-01-21T00:53:46.896Z,-6.32
2023-01-21T00:54:46.884Z,-6.34
2023-01-21T00:55:46.869Z,-6.36
2023-01-21T00:56:46.848Z,-6.44
2023-01-21T00:57:46.834Z,-6.42
2023-01-21T00:58:46.821Z,-6.44
2023-01-21T00:59:46.827Z,-6.53
2023-01-21T01:00:46.798Z,-6.50
2023-01-21T01:01:46.844Z,-6.42
2023-01-21T01:02:46.940Z,-6.47
2023-01-21T01:03:46.764Z,-6.44
2023-01-21T01:04:46.746Z,-6.46
2023-01-21T01:05:46.739Z,-6.39
2023-01-21T01:06:46.728Z,-6.38
2023-01-21T01:07:46.705Z,-6.31
2023-01-21T01:08:46.726Z,-6.29
2023-01-21T01:09:46.692Z,-6.28
2023-01-21T01:10:46.672Z,-6.15
2023-01-21T01:11:46.665Z,-6.15
2023-01-21T01:12:46.642Z,-6.13
2023-01-21T01:13:46.628Z,-6.15
2023-01-21T01:14:46.632Z,-6.11
2023-01-21T01:15:46.631Z,-6.21
2023-01-21T01:16:46.597Z,-6.18
2023-01-21T01:17:46.590Z,-6.18
2023-01-21T01:18:46.563Z,-6.11
2023-01-21T01:19:46.563Z,-6.15
2023-01-21T01:20:46.541Z,-6.10
2023-01-21T01:21:46.526Z,-6.05
2023-01-21T01:22:46.521Z,-6.05
2023-01-21T01:23:46.510Z,-6.11
2023-01-21T01:24:46.513Z,-5.99
2023-01-21T01:25:46.479Z,-6.08
2023-01-21T01:26:46.462Z,-6.03
2023-01-21T01:27:46.455Z,-5.97
2023-01-21T01:28:46.449Z,-5.92
2023-01-21T01:29:46.433Z,-5.99
2023-01-21T01:30:46.548Z,-6.05
2023-01-21T01:31:46.457Z,-5.95
2023-01-21T01:32:46.385Z,-5.93
2023-01-21T01:33:46.380Z,-5.92
2023-01-21T01:34:46.366Z,-5.89
2023-01-21T01:35:46.353Z,-5.78
2023-01-21T01:36:46.336Z,-5.84
2023-01-21T01:37:46.317Z,-5.89
2023-01-21T01:38:46.319Z,-5.93
2023-01-21T01:39:46.290Z,-5.96
2023-01-21T01:40:46.323Z,-5.95
2023-01-21T01:41:46.271Z,-5.95
2023-01-21T01:42:46.284Z,-6.03
2023-01-21T01:43:46.238Z,-6.11
2023-01-21T01:44:46.227Z,-6.07
2023-01-21T01:45:46.217Z,-6.08
2023-01-21T01:46:46.302Z,-6.05
2023-01-21T01:47:46.205Z,-5.92
2023-01-21T01:48:46.175Z,-5.97
2023-01-21T01:49:46.166Z,-5.96
2023-01-21T01:50:46.200Z,-5.99
2023-01-21T01:51:46.157Z,-6.05
2023-01-21T01:52:46.145Z,-6.08
2023-01-21T01:53:46.118Z,-6.15
2023-01-21T01:54:46.103Z,-6.17
2023-01-21T01:55:46.097Z,-6.26
2023-01-21T01:56:46.112Z,-6.20
2023-01-21T01:57:46.057Z,-6.23
2023-01-21T01:58:46.049Z,-6.24
2023-01-21T01:59:46.033Z,-6.28
2023-01-21T02:00:46.033Z,-6.28
2023-01-21T02:01:46.046Z,-6.24
2023-01-21T02:02:46.026Z,-6.23
2023-01-21T02:03:46.021Z,-6.24
2023-01-21T02:04:45.968Z,-6.26
2023-01-21T02:05:45.956Z,-6.32
2023-01-21T02:06:45.948Z,-6.21
2023-01-21T02:07:45.938Z,-6.18
2023-01-21T02:08:45.920Z,-6.17
2023-01-21T02:09:45.908Z,-6.13
2023-01-21T02:10:45.892Z,-6.18
2023-01-21T02:11:45.877Z,-6.18
2023-01-21T02:12:45.893Z,-6.28
2023-01-21T02:13:45.858Z,-6.24
2023-01-21T02:14:45.845Z,-6.31
2023-01-21T02:15:45.989Z,-6.31
2023-01-21T02:16:45.819Z,-6.24
2023-01-21T02:17:45.804Z,-6.24
2023-01-21T02:18:45.790Z,-6.18
2023-01-21T02:19:45.771Z,-6.20
2023-01-21T02:20:45.758Z,-5.97
2023-01-21T02:21:45.750Z,-5.99
2023-01-21T02:22:45.733Z,-5.93
2023-01-21T02:23:45.727Z,-5.89
2023-01-21T02:24:45.704Z,-5.76
2023-01-21T02:25:45.708Z,-5.79
2023-01-21T02:26:45.693Z,-5.84
2023-01-21T02:27:45.675Z,-5.86
2023-01-21T02:28:45.684Z,-5.82
2023-01-21T02:29:45.639Z,-5.85
2023-01-21T02:30:45.664Z,-5.84
2023-01-21T02:31:45.653Z,-5.82
2023-01-21T02:32:45.599Z,-5.84
2023-01-21T02:33:45.617Z,-5.74
2023-01-21T02:34:45.586Z,-5.71
2023-01-21T02:35:45.581Z,-5.64
2023-01-21T02:36:45.551Z,-5.66
2023-01-21T02:37:45.542Z,-5.74
2023-01-21T02:38:45.537Z,-5.72
2023-01-21T02:39:45.511Z,-5.68
2023-01-21T02:40:45.518Z,-5.67
2023-01-21T02:41:45.489Z,-5.68
2023-01-21T02:42:45.483Z,-5.71
2023-01-21T02:43:45.460Z,-5.74
2023-01-21T02:44:45.476Z,-5.67
2023-01-21T02:45:45.435Z,-5.71
2023-01-21T02:46:45.466Z,-5.79
2023-01-21T02:47:45.402Z,-5.78
2023-01-21T02:48:45.396Z,-5.84
2023-01-21T02:49:45.380Z,-5.72
2023-01-21T02:50:45.449Z,-5.85
2023-01-21T02:51:45.350Z,-5.81
2023-01-21T02:52:45.345Z,-5.92
2023-01-21T02:53:45.324Z,-5.92
2023-01-21T02:54:45.312Z,-5.89
2023-01-21T02:55:45.311Z,-5.86
2023-01-21T02:56:45.289Z,-5.90
2023-01-21T02:57:45.273Z,-5.93
2023-01-21T02:58:45.259Z,-5.86
2023-01-21T02:59:45.262Z,-5.92
2023-01-21T03:00:45.284Z,-5.90
2023-01-21T03:01:45.269Z,-5.90
2023-01-21T03:02:45.216Z,-5.95
2023-01-21T03:03:45.195Z,-6.02
2023-01-21T03:04:45.189Z,-6.02
2023-01-21T03:05:45.168Z,-6.02
2023-01-21T03:06:45.158Z,-6.11
2023-01-21T03:07:45.151Z,-6.15
2023-01-21T03:08:45.138Z,-6.18
2023-01-21T03:09:45.125Z,-6.15
2023-01-21T03:10:45.106Z,-6.14
2023-01-21T03:11:45.097Z,-6.17
2023-01-21T03:12:45.094Z,-6.20
2023-01-21T03:13:45.072Z,-6.18
2023-01-21T03:14:45.082Z,-6.24
2023-01-21T03:15:45.045Z,-6.26
2023-01-21T03:16:45.061Z,-6.26
2023-01-21T03:17:45.035Z,-6.28
2023-01-21T03:18:44.999Z,-6.21
2023-01-21T03:19:45.013Z,-6.31
2023-01-21T03:20:44.975Z,-6.26
2023-01-21T03:21:44.960Z,-6.26
2023-01-21T03:22:44.954Z,-6.31
2023-01-21T03:23:44.942Z,-6.28
2023-01-21T03:24:44.921Z,-6.34
2023-01-21T03:25:44.918Z,-6.29
2023-01-21T03:26:44.902Z,-6.39
2023-01-21T03:27:44.907Z,-6.35
2023-01-21T03:28:44.868Z,-6.46
2023-01-21T03:29:44.863Z,-6.47
2023-01-21T03:30:44.853Z,-6.50
2023-01-21T03:31:44.871Z,-6.44
2023-01-21T03:32:45.248Z,-6.46
2023-01-21T03:33:46.714Z,-6.54
2023-01-21T03:34:44.794Z,-6.50
2023-01-21T03:35:44.789Z,-6.52
2023-01-21T03:36:44.769Z,-6.61
2023-01-21T03:37:44.758Z,-6.66
2023-01-21T03:38:44.747Z,-6.65
2023-01-21T03:39:44.735Z,-6.69
2023-01-21T03:40:44.717Z,-6.69
2023-01-21T03:41:44.711Z,-6.78
2023-01-21T03:42:44.703Z,-6.74
2023-01-21T03:43:44.685Z,-6.75
2023-01-21T03:44:44.661Z,-6.75
2023-01-21T03:45:44.735Z,-6.65
2023-01-21T03:46:44.636Z,-6.68
2023-01-21T03:47:44.639Z,-6.69
2023-01-21T03:48:44.634Z,-6.71
2023-01-21T03:49:44.597Z,-6.69
2023-01-21T03:50:44.694Z,-6.69
2023-01-21T03:51:44.582Z,-6.66
2023-01-21T03:52:44.556Z,-6.63
2023-01-21T03:53:44.543Z,-6.66
2023-01-21T03:54:44.538Z,-6.69
2023-01-21T03:55:44.532Z,-6.74
2023-01-21T03:56:44.509Z,-6.78
2023-01-21T03:57:44.501Z,-6.76
2023-01-21T03:58:44.480Z,-6.78
2023-01-21T03:59:44.472Z,-6.79
2023-01-21T04:00:44.500Z,-6.75
2023-01-21T04:01:44.448Z,-6.81
2023-01-21T04:02:44.432Z,-6.79
2023-01-21T04:03:44.416Z,-6.81
2023-01-21T04:04:44.418Z,-6.93
2023-01-21T04:05:44.407Z,-6.93
2023-01-21T04:06:44.370Z,-6.93
2023-01-21T04:07:44.357Z,-6.89
2023-01-21T04:08:44.341Z,-6.90
2023-01-21T04:09:44.329Z,-6.93
2023-01-21T04:10:44.319Z,-6.90
2023-01-21T04:11:44.315Z,-6.97
2023-01-21T04:12:44.289Z,-6.99
2023-01-21T04:13:44.297Z,-7.05
2023-01-21T04:14:44.264Z,-6.96
2023-01-21T04:15:44.251Z,-6.93
2023-01-21T04:16:44.339Z,-6.81
2023-01-21T04:17:44.231Z,-6.81
2023-01-21T04:18:44.220Z,-6.71
2023-01-21T04:19:44.201Z,-6.72
2023-01-21T04:20:44.225Z,-6.74
2023-01-21T04:21:44.178Z,-6.75
2023-01-21T04:22:44.159Z,-6.69
2023-01-21T04:23:44.160Z,-6.81
2023-01-21T04:24:44.140Z,-6.87
2023-01-21T04:25:44.122Z,-6.90
2023-01-21T04:26:44.105Z,-6.99
2023-01-21T04:27:44.102Z,-7.07
2023-01-21T04:28:44.083Z,-7.08
2023-01-21T04:29:44.077Z,-7.13
2023-01-21T04:30:44.070Z,-7.15
2023-01-21T04:31:44.142Z,-7.18
2023-01-21T04:32:44.040Z,-7.17
2023-01-21T04:33:44.042Z,-7.21
2023-01-21T04:34:44.004Z,-7.23
2023-01-21T04:35:44.005Z,-7.11
2023-01-21T04:36:44.013Z,-7.13
2023-01-21T04:37:43.963Z,-7.21
2023-01-21T04:38:43.958Z,-7.26
2023-01-21T04:39:43.936Z,-7.28
2023-01-21T04:40:43.934Z,-7.31
2023-01-21T04:41:43.930Z,-7.32
2023-01-21T04:42:43.909Z,-7.40
2023-01-21T04:43:43.896Z,-7.49
2023-01-21T04:44:43.875Z,-7.46
2023-01-21T04:45:43.933Z,-7.53
2023-01-21T04:46:43.864Z,-7.50
2023-01-21T04:47:43.841Z,-7.52
2023-01-21T04:48:43.837Z,-7.43
2023-01-21T04:49:43.810Z,-7.44
2023-01-21T04:50:43.900Z,-7.40
2023-01-21T04:51:43.796Z,-7.36
2023-01-21T04:52:43.808Z,-7.31
2023-01-21T04:53:43.768Z,-7.31
2023-01-21T04:54:43.762Z,-7.32
2023-01-21T04:55:43.744Z,-7.25
2023-01-21T04:56:43.714Z,-7.21
2023-01-21T04:57:43.719Z,-7.28
2023-01-21T04:58:43.691Z,-7.28
2023-01-21T04:59:43.689Z,-7.23
2023-01-21T05:00:43.664Z,-7.15
2023-01-21T05:01:43.657Z,-7.18
2023-01-21T05:02:43.646Z,-7.25
2023-01-21T05:03:43.644Z,-7.42
2023-01-21T05:04:43.609Z,-7.50
2023-01-21T05:05:43.604Z,-7.56
2023-01-21T05:06:43.586Z,-7.64
2023-01-21T05:07:43.594Z,-7.68
2023-01-21T05:08:43.590Z,-7.64
2023-01-21T05:09:43.554Z,-7.58
2023-01-21T05:10:43.565Z,-7.63
2023-01-21T05:11:43.526Z,-7.67
2023-01-21T05:12:43.522Z,-7.61
2023-01-21T05:13:43.509Z,-7.65
2023-01-21T05:14:43.484Z,-7.71
2023-01-21T05:15:43.505Z,-7.63
2023-01-21T05:16:43.503Z,-7.65
2023-01-21T05:17:43.450Z,-7.71
2023-01-21T05:18:46.388Z,-7.70
2023-01-21T05:19:43.416Z,-7.79
2023-01-21T05:20:43.417Z,-7.78
2023-01-21T05:21:43.396Z,-7.85
2023-01-21T05:22:43.375Z,-7.93
2023-01-21T05:23:43.362Z,-7.78
2023-01-21T05:24:43.376Z,-7.79
2023-01-21T05:25:43.338Z,-7.81
2023-01-21T05:26:43.330Z,-7.82
2023-01-21T05:27:43.311Z,-7.81
2023-01-21T05:28:43.302Z,-7.75
2023-01-21T05:29:43.292Z,-7.71
2023-01-21T05:30:44.699Z,-7.68
2023-01-21T05:31:43.403Z,-7.74
2023-01-21T05:32:43.250Z,-7.65
2023-01-21T05:33:43.232Z,-7.65
2023-01-21T05:34:43.226Z,-7.67
2023-01-21T05:35:43.207Z,-7.63
2023-01-21T05:36:43.203Z,-7.63
2023-01-21T05:37:43.215Z,-7.60
2023-01-21T05:38:43.182Z,-7.54
2023-01-21T05:39:43.162Z,-7.54
2023-01-21T05:40:43.166Z,-7.58
2023-01-21T05:41:43.130Z,-7.44
2023-01-21T05:42:43.123Z,-7.50
2023-01-21T05:43:43.107Z,-7.38
2023-01-21T05:44:43.092Z,-7.38
2023-01-21T05:45:43.076Z,-7.36
2023-01-21T05:46:43.062Z,-7.29
2023-01-21T05:47:43.048Z,-7.29
2023-01-21T05:48:43.045Z,-7.26
2023-01-21T05:49:43.032Z,-7.33
2023-01-21T05:50:43.019Z,-7.42
2023-01-21T05:51:42.993Z,-7.36
2023-01-21T05:52:42.992Z,-7.49
2023-01-21T05:53:42.976Z,-7.54
2023-01-21T05:54:59.992Z,-7.63
2023-01-21T05:55:43.987Z,-7.70
2023-01-21T05:56:42.967Z,-7.71
2023-01-21T05:57:42.924Z,-7.79
2023-01-21T05:58:42.913Z,-7.88
2023-01-21T05:59:42.889Z,-7.91
2023-01-21T06:00:42.883Z,-7.89
2023-01-21T06:01:42.882Z,-7.91
2023-01-21T06:02:42.924Z,-7.97
2023-01-21T06:03:42.878Z,-8.04
2023-01-21T06:04:42.827Z,-7.99
2023-01-21T06:05:42.812Z,-8.03
2023-01-21T06:06:42.810Z,-8.08
2023-01-21T06:07:42.805Z,-8.08
2023-01-21T06:08:42.769Z,-8.07
2023-01-21T06:09:42.767Z,-8.04
2023-01-21T06:10:42.752Z,-7.99
2023-01-21T06:11:42.755Z,-8.05
2023-01-21T06:12:42.773Z,-8.05
2023-01-21T06:13:42.750Z,-8.04
2023-01-21T06:14:42.729Z,-7.97
2023-01-21T06:15:42.807Z,-7.96
2023-01-21T06:16:42.666Z,-7.88
2023-01-21T06:17:42.662Z,-7.92
2023-01-21T06:18:42.651Z,-7.93
2023-01-21T06:19:42.628Z,-8.01
2023-01-21T06:20:42.660Z,-7.96
2023-01-21T06:21:42.615Z,-7.82
2023-01-21T06:22:42.589Z,-7.81
2023-01-21T06:23:42.575Z,-7.65
2023-01-21T06:24:42.562Z,-7.56
2023-01-21T06:25:42.557Z,-7.54
2023-01-21T06:26:42.542Z,-7.49
2023-01-21T06:27:42.531Z,-7.40
2023-01-21T06:28:42.532Z,-7.35
2023-01-21T06:29:42.501Z,-7.36
2023-01-21T06:30:42.483Z,-7.35
2023-01-21T06:31:42.568Z,-7.43
2023-01-21T06:32:42.461Z,-7.46
2023-01-21T06:33:42.452Z,-7.54
2023-01-21T06:34:43.293Z,-7.60
2023-01-21T06:35:42.435Z,-7.64
2023-01-21T06:36:42.417Z,-7.70
2023-01-21T06:37:42.394Z,-7.81
2023-01-21T06:38:42.382Z,-7.81
2023-01-21T06:39:42.373Z,-7.71
2023-01-21T06:40:42.352Z,-7.71
2023-01-21T06:41:42.340Z,-7.71
2023-01-21T06:42:42.333Z,-7.63
2023-01-21T06:43:42.314Z,-7.64
2023-01-21T06:44:42.353Z,-7.64
2023-01-21T06:45:42.313Z,-7.65
2023-01-21T06:46:45.954Z,-7.64
2023-01-21T06:47:43.308Z,-7.60
2023-01-21T06:48:42.259Z,-7.56
2023-01-21T06:49:42.249Z,-7.58
2023-01-21T06:50:42.231Z,-7.64
2023-01-21T06:51:42.221Z,-7.64
2023-01-21T06:52:42.204Z,-7.61
2023-01-21T06:53:42.192Z,-7.63
2023-01-21T06:54:42.170Z,-7.61
2023-01-21T06:55:42.161Z,-7.63
2023-01-21T06:56:42.172Z,-7.58
2023-01-21T06:57:42.151Z,-7.68
2023-01-21T06:58:42.125Z,-7.67
2023-01-21T06:59:42.114Z,-7.68
2023-01-21T07:00:42.130Z,-7.74
2023-01-21T07:01:42.134Z,-7.71
2023-01-21T07:02:42.099Z,-7.74
2023-01-21T07:03:42.064Z,-7.71
2023-01-21T07:04:42.128Z,-7.65
2023-01-21T07:05:42.035Z,-7.68
2023-01-21T07:06:42.028Z,-7.58
2023-01-21T07:07:42.027Z,-7.61
2023-01-21T07:08:41.987Z,-7.53
2023-01-21T07:09:41.985Z,-7.49
2023-01-21T07:10:41.971Z,-7.50
2023-01-21T07:11:41.958Z,-7.49
2023-01-21T07:12:41.943Z,-7.47
2023-01-21T07:13:41.923Z,-7.58
2023-01-21T07:14:41.917Z,-7.58
2023-01-21T07:15:41.929Z,-7.58
2023-01-21T07:16:41.910Z,-7.58
2023-01-21T07:17:41.870Z,-7.54
2023-01-21T07:18:41.867Z,-7.44
2023-01-21T07:19:41.855Z,-7.50
2023-01-21T07:20:41.835Z,-7.50
2023-01-21T07:21:41.831Z,-7.43
2023-01-21T07:22:41.813Z,-7.47
2023-01-21T07:23:41.803Z,-7.58
2023-01-21T07:24:41.788Z,-7.71
2023-01-21T07:25:41.787Z,-7.75
2023-01-21T07:26:41.769Z,-7.86
2023-01-21T07:27:41.746Z,-7.85
2023-01-21T07:28:41.748Z,-7.72
2023-01-21T07:29:41.726Z,-7.71
2023-01-21T07:30:41.769Z,-7.70
2023-01-21T07:31:41.837Z,-7.71
2023-01-21T07:32:41.721Z,-7.68
2023-01-21T07:33:41.680Z,-7.61
2023-01-21T07:34:41.671Z,-7.58
2023-01-21T07:35:41.653Z,-7.60
2023-01-21T07:36:41.636Z,-7.56
2023-01-21T07:37:41.619Z,-7.52
2023-01-21T07:38:41.605Z,-7.50
2023-01-21T07:39:41.598Z,-7.50
2023-01-21T07:40:41.597Z,-7.52
2023-01-21T07:41:41.563Z,-7.44
2023-01-21T07:42:41.553Z,-7.46
2023-01-21T07:43:41.550Z,-7.43
2023-01-21T07:44:41.524Z,-7.38
2023-01-21T07:45:41.516Z,-7.36
2023-01-21T07:46:41.550Z,-7.28
2023-01-21T07:47:41.487Z,-7.23
2023-01-21T07:48:41.507Z,-7.28
2023-01-21T07:49:41.475Z,-7.40
2023-01-21T07:50:41.447Z,-7.49
2023-01-21T07:51:41.453Z,-7.50
2023-01-21T07:52:41.427Z,-7.49
2023-01-21T07:53:41.413Z,-7.40
2023-01-21T07:54:41.395Z,-7.35
2023-01-21T07:55:41.388Z,-7.26
2023-01-21T07:56:41.389Z,-7.13
2023-01-21T07:57:41.364Z,-7.05
2023-01-21T07:58:41.348Z,-7.05
2023-01-21T07:59:41.336Z,-6.97
2023-01-21T08:00:41.322Z,-6.89
2023-01-21T08:01:41.531Z,-6.83
2023-01-21T08:02:41.385Z,-6.72
2023-01-21T08:03:41.278Z,-6.61
2023-01-21T08:04:41.298Z,-6.52
2023-01-21T08:05:41.261Z,-6.42
2023-01-21T08:06:41.329Z,-6.32
2023-01-21T08:07:41.251Z,-6.20
2023-01-21T08:08:41.233Z,-6.14
2023-01-21T08:09:41.200Z,-6.08
2023-01-21T08:10:41.196Z,-6.14
2023-01-21T08:11:41.231Z,-6.31
2023-01-21T08:12:41.176Z,-6.44
2023-01-21T08:13:41.175Z,-6.49
2023-01-21T08:14:41.147Z,-6.54
2023-01-21T08:15:41.136Z,-6.47
2023-01-21T08:16:41.155Z,-6.44
2023-01-21T08:17:41.118Z,-6.44
2023-01-21T08:18:41.123Z,-6.38
2023-01-21T08:19:41.085Z,-6.35
2023-01-21T08:20:41.093Z,-6.35
2023-01-21T08:21:41.067Z,-6.39
2023-01-21T08:22:41.057Z,-6.35
2023-01-21T08:23:41.056Z,-6.34
2023-01-21T08:24:41.014Z,-6.26
2023-01-21T08:25:41.010Z,-6.24
2023-01-21T08:26:40.995Z,-6.20
2023-01-21T08:27:40.976Z,-6.17
2023-01-21T08:28:40.971Z,-6.20
2023-01-21T08:29:40.957Z,-6.28
2023-01-21T08:30:40.967Z,-6.24
2023-01-21T08:31:40.995Z,-6.13
2023-01-21T08:32:40.921Z,-6.15
2023-01-21T08:33:40.900Z,-6.05
2023-01-21T08:34:40.897Z,-5.92
2023-01-21T08:35:40.878Z,-5.72
2023-01-21T08:36:40.891Z,-5.74
2023-01-21T08:37:40.854Z,-5.64
2023-01-21T08:38:40.838Z,-5.64
2023-01-21T08:39:40.830Z,-5.51
2023-01-21T08:40:40.816Z,-5.47
2023-01-21T08:41:40.800Z,-5.36
2023-01-21T08:42:40.789Z,-5.35
2023-01-21T08:43:40.787Z,-5.31
2023-01-21T08:44:40.755Z,-5.38
2023-01-21T08:45:40.790Z,-5.39
2023-01-21T08:46:40.736Z,-5.38
2023-01-21T08:47:40.725Z,-5.29
2023-01-21T08:48:40.707Z,-5.22
2023-01-21T08:49:40.698Z,-5.09
2023-01-21T08:50:40.703Z,-5.13
2023-01-21T08:51:40.671Z,-5.31
2023-01-21T08:52:40.686Z,-5.43
2023-01-21T08:53:40.667Z,-5.57
2023-01-21T08:54:40.631Z,-5.42
2023-01-21T08:55:40.622Z,-5.25
2023-01-21T08:56:40.611Z,-5.06
2023-01-21T08:57:40.584Z,-4.99
2023-01-21T08:58:40.588Z,-4.89
2023-01-21T08:59:40.565Z,-4.77
2023-01-21T09:00:40.580Z,-4.55
2023-01-21T09:01:40.539Z,-4.39
2023-01-21T09:02:40.534Z,-4.31
2023-01-21T09:03:40.523Z,-3.91
2023-01-21T09:04:40.491Z,-3.04
2023-01-21T09:05:40.483Z,-2.34
2023-01-21T09:06:40.471Z,-1.77
2023-01-21T09:07:40.477Z,-1.15
2023-01-21T09:08:40.475Z,-0.59
2023-01-21T09:09:40.436Z,-0.32
2023-01-21T09:10:40.432Z,-0.29
2023-01-21T09:11:40.402Z,-0.20
2023-01-21T09:12:40.396Z,-0.10
2023-01-21T09:13:40.384Z,-0.17
2023-01-21T09:14:40.371Z,-0.23
2023-01-21T09:15:40.358Z,-0.75
2023-01-21T09:16:40.366Z,-1.08
2023-01-21T09:17:40.330Z,-1.26
2023-01-21T09:18:40.323Z,-1.37
2023-01-21T09:19:40.296Z,-1.43
2023-01-21T09:20:40.299Z,-1.58
2023-01-21T09:21:40.274Z,-1.65
2023-01-21T09:22:40.270Z,-1.71
2023-01-21T09:23:40.262Z,-1.92
2023-01-21T09:24:40.271Z,-1.89
2023-01-21T09:25:40.222Z,-2.08
2023-01-21T09:26:40.219Z,-2.15
2023-01-21T09:27:40.199Z,-2.15
2023-01-21T09:28:40.184Z,-2.50
2023-01-21T09:29:40.167Z,-2.69
2023-01-21T09:30:40.244Z,-2.62
2023-01-21T09:31:40.214Z,-2.76
2023-01-21T09:32:40.131Z,-2.77
2023-01-21T09:33:40.136Z,-2.77
2023-01-21T09:34:40.106Z,-2.99
2023-01-21T09:35:40.091Z,-3.27
2023-01-21T09:36:40.076Z,-3.13
2023-01-21T09:37:40.060Z,-3.10
2023-01-21T09:38:40.042Z,-3.34
2023-01-21T09:39:40.032Z,-3.55
2023-01-21T09:40:40.044Z,-3.67
2023-01-21T09:41:40.015Z,-3.69
2023-01-21T09:42:39.997Z,-3.55
2023-01-21T09:43:39.982Z,-3.46
2023-01-21T09:44:39.997Z,-3.28
2023-01-21T09:45:40.010Z,-3.09
2023-01-21T09:46:39.939Z,-2.89
2023-01-21T09:47:39.955Z,-3.12
2023-01-21T09:48:39.935Z,-3.13
2023-01-21T09:49:39.918Z,-3.16
2023-01-21T09:50:39.895Z,-2.94
2023-01-21T09:51:39.883Z,-2.88
2023-01-21T09:52:39.863Z,-3.12
2023-01-21T09:53:39.871Z,-3.23
2023-01-21T09:54:39.848Z,-3.37
2023-01-21T09:55:39.823Z,-3.28
2023-01-21T09:56:39.836Z,-2.84
2023-01-21T09:57:39.816Z,-2.15
2023-01-21T09:58:39.806Z,-1.71
2023-01-21T09:59:39.775Z,-1.32
2023-01-21T10:00:39.769Z,-0.65
2023-01-21T10:01:39.742Z,-0.32
2023-01-21T10:02:39.733Z,-0.08
2023-01-21T10:03:39.720Z,0.03
2023-01-21T10:04:39.726Z,0.21
2023-01-21T10:05:39.689Z,0.23
2023-01-21T10:06:39.683Z,0.16
2023-01-21T10:07:39.668Z,-0.02
2023-01-21T10:08:39.660Z,-0.29
2023-01-21T10:09:39.641Z,-0.56
2023-01-21T10:10:39.636Z,-0.62
2023-01-21T10:11:39.608Z,-0.70
2023-01-21T10:12:39.629Z,-0.75
2023-01-21T10:13:39.581Z,-0.77
2023-01-21T10:14:39.580Z,-0.75
2023-01-21T10:15:39.568Z,-0.75
2023-01-21T10:16:39.610Z,-0.64
2023-01-21T10:17:39.540Z,-0.41
2023-01-21T10:18:39.517Z,-0.25
2023-01-21T10:19:39.513Z,0.04
2023-01-21T10:20:39.519Z,0.23
2023-01-21T10:21:39.482Z,0.15
2023-01-21T10:22:39.475Z,0.04
2023-01-21T10:23:40.056Z,-0.06
2023-01-21T10:24:39.452Z,-0.14
2023-01-21T10:25:39.433Z,-0.31
2023-01-21T10:26:39.422Z,-0.41
2023-01-21T10:27:39.416Z,-0.46
2023-01-21T10:28:39.418Z,-0.39
2023-01-21T10:29:39.378Z,-0.47
2023-01-21T10:30:39.512Z,-0.44
2023-01-21T10:31:39.492Z,-0.53
2023-01-21T10:32:39.388Z,-0.53
2023-01-21T10:33:39.330Z,-0.62
2023-01-21T10:34:39.308Z,-0.59
2023-01-21T10:35:39.332Z,-0.54
2023-01-21T10:36:39.293Z,-0.49
2023-01-21T10:37:39.271Z,-0.41
2023-01-21T10:38:39.262Z,-0.32
2023-01-21T10:39:39.243Z,-0.26
2023-01-21T10:40:39.240Z,-0.20
2023-01-21T10:41:39.231Z,-0.17
2023-01-21T10:42:39.216Z,-0.11
2023-01-21T10:43:39.201Z,-0.02
2023-01-21T10:44:39.205Z,-0.03
2023-01-21T10:45:39.182Z,-0.10
2023-01-21T10:46:39.163Z,-0.20
2023-01-21T10:47:39.147Z,-0.25
2023-01-21T10:48:39.139Z,-0.26
2023-01-21T10:49:39.120Z,-0.23
2023-01-21T10:50:39.147Z,-0.18
2023-01-21T10:51:39.125Z,-0.21
2023-01-21T10:52:39.079Z,-0.26
2023-01-21T10:53:39.114Z,-0.44
2023-01-21T10:54:39.072Z,-0.52
2023-01-21T10:55:39.037Z,-0.54
2023-01-21T10:56:39.033Z,-0.74
2023-01-21T10:57:39.016Z,-0.71
2023-01-21T10:58:39.006Z,-0.52
2023-01-21T10:59:38.995Z,-0.21
2023-01-21T11:00:39.004Z,-0.02
2023-01-21T11:01:39.073Z,0.03
2023-01-21T11:02:38.969Z,0.08
2023-01-21T11:03:39.048Z,0.32
2023-01-21T11:04:38.923Z,0.74
2023-01-21T11:05:38.933Z,1.08
2023-01-21T11:06:38.908Z,1.42
2023-01-21T11:07:38.889Z,1.56
2023-01-21T11:08:38.932Z,1.77
2023-01-21T11:09:38.862Z,1.81
2023-01-21T11:10:38.854Z,1.81
2023-01-21T11:11:38.831Z,2.07
2023-01-21T11:12:38.830Z,1.68
2023-01-21T11:13:38.816Z,1.41
2023-01-21T11:14:38.793Z,1.16
2023-01-21T11:15:38.831Z,1.04
2023-01-21T11:16:38.791Z,0.80
2023-01-21T11:17:38.759Z,0.58
2023-01-21T11:18:38.741Z,0.68
2023-01-21T11:19:38.728Z,0.52
2023-01-21T11:20:38.715Z,0.52
2023-01-21T11:21:38.707Z,0.43
2023-01-21T11:22:38.692Z,0.46
2023-01-21T11:23:38.682Z,0.36
2023-01-21T11:24:38.666Z,0.31
2023-01-21T11:25:38.659Z,0.29
2023-01-21T11:26:38.638Z,0.29
2023-01-21T11:27:38.638Z,0.36
2023-01-21T11:28:38.621Z,0.40
2023-01-21T11:29:38.609Z,0.36
2023-01-21T11:30:50.578Z,0.39
2023-01-21T11:31:39.769Z,0.39
2023-01-21T11:32:38.590Z,0.43
2023-01-21T11:33:38.551Z,0.23
2023-01-21T11:34:38.538Z,0.19
2023-01-21T11:35:38.532Z,-0.07
2023-01-21T11:36:38.518Z,-0.18
2023-01-21T11:37:38.499Z,-0.29
2023-01-21T11:38:38.485Z,-0.47
2023-01-21T11:39:38.483Z,-0.72
2023-01-21T11:40:38.466Z,-0.75
2023-01-21T11:41:38.449Z,-0.91
2023-01-21T11:42:38.425Z,-0.93
2023-01-21T11:43:38.417Z,-1.05
2023-01-21T11:44:38.418Z,-1.08
2023-01-21T11:45:38.393Z,-1.09
2023-01-21T11:46:38.383Z,-1.07
2023-01-21T11:47:38.392Z,-0.99
2023-01-21T11:48:38.373Z,-1.11
2023-01-21T11:49:38.347Z,-0.96
2023-01-21T11:50:38.333Z,-1.08
2023-01-21T11:51:38.316Z,-1.20
2023-01-21T11:52:38.305Z,-1.14
2023-01-21T11:53:38.294Z,-1.35
2023-01-21T11:54:38.275Z,-1.20
2023-01-21T11:55:38.261Z,-1.40
2023-01-21T11:56:38.269Z,-1.43
2023-01-21T11:57:38.235Z,-1.41
2023-01-21T11:58:38.224Z,-1.44
2023-01-21T11:59:38.229Z,-1.48
2023-01-21T12:00:38.197Z,-1.43
2023-01-21T12:01:38.195Z,-1.47
2023-01-21T12:02:38.257Z,-1.44
2023-01-21T12:03:38.220Z,-1.51
2023-01-21T12:04:38.175Z,-1.47
2023-01-21T12:05:38.131Z,-1.50
2023-01-21T12:06:38.122Z,-1.54
2023-01-21T12:07:38.097Z,-1.53
2023-01-21T12:08:38.098Z,-1.58
2023-01-21T12:09:38.070Z,-1.64
2023-01-21T12:10:38.068Z,-1.59
2023-01-21T12:11:38.053Z,-1.62
2023-01-21T12:12:38.041Z,-1.58
2023-01-21T12:13:38.045Z,-1.54
2023-01-21T12:14:38.015Z,-1.58
2023-01-21T12:15:38.068Z,-1.68
2023-01-21T12:16:37.985Z,-1.68
2023-01-21T12:17:40.068Z,-1.79
2023-01-21T12:18:37.967Z,-1.83
2023-01-21T12:19:37.948Z,-1.84
2023-01-21T12:20:37.957Z,-1.79
2023-01-21T12:21:37.926Z,-1.84
2023-01-21T12:22:37.905Z,-1.84
2023-01-21T12:23:37.913Z,-1.82
2023-01-21T12:24:37.888Z,-1.82
2023-01-21T12:25:37.863Z,-1.90
2023-01-21T12:26:37.859Z,-1.86
2023-01-21T12:27:37.838Z,-1.87
2023-01-21T12:28:37.832Z,-1.94
2023-01-21T12:29:37.817Z,-1.89
2023-01-21T12:30:37.849Z,-1.95
2023-01-21T12:31:37.870Z,-2.02
2023-01-21T12:32:37.779Z,-2.05
2023-01-21T12:33:37.765Z,-2.00
2023-01-21T12:34:37.762Z,-1.95
2023-01-21T12:35:37.759Z,-1.97
2023-01-21T12:36:37.773Z,-2.07
2023-01-21T12:37:37.718Z,-2.10
2023-01-21T12:38:37.703Z,-2.10
2023-01-21T12:39:37.688Z,-2.02
2023-01-21T12:40:37.688Z,-2.01
2023-01-21T12:41:37.662Z,-1.98
2023-01-21T12:42:37.768Z,-1.95
2023-01-21T12:43:37.635Z,-1.98
2023-01-21T12:44:37.621Z,-2.04
2023-01-21T12:45:37.617Z,-2.07
2023-01-21T12:46:37.692Z,-2.16
2023-01-21T12:47:37.579Z,-2.16
2023-01-21T12:48:37.567Z,-2.16
2023-01-21T12:49:37.560Z,-2.16
2023-01-21T12:50:37.549Z,-2.28
2023-01-21T12:51:37.539Z,-2.23
2023-01-21T12:52:37.556Z,-2.28
2023-01-21T12:53:37.509Z,-2.22
2023-01-21T12:54:37.494Z,-2.16